sensor_id;sensor_type;location;lat;lon;timestamp;temperature;humidity
53152;DHT22;39234;53.158;6.322;2023-05-08T00:00:24;12.10;99.90
53152;DHT22;39234;53.158;6.322;2023-05-08T00:02:50;11.20;99.90
53152;DHT22;39234;53.158;6.322;2023-05-08T00:05:16;11.10;99.90
53152;DHT22;39234;53.158;6.322;2023-05-08T00:07:42;11.00;99.90
53152;DHT22;39234;53.158;6.322;2023-05-08T00:10:09;10.90;99.90
53152;DHT22;39234;53.158;6.322;2023-05-08T00:12:35;11.00;99.90
53152;DHT22;39234;53.158;6.322;2023-05-08T00:15:02;10.90;99.90
53152;DHT22;39234;53.158;6.322;2023-05-08T00:17:28;10.60;99.90
53152;DHT22;39234;53.158;6.322;2023-05-08T00:19:54;9.70;99.90
53152;DHT22;39234;53.158;6.322;2023-05-08T00:22:20;10.70;99.90
53152;DHT22;39234;53.158;6.322;2023-05-08T00:24:46;10.80;99.90
53152;DHT22;39234;53.158;6.322;2023-05-08T00:27:11;10.60;99.90
53152;DHT22;39234;53.158;6.322;2023-05-08T00:29:38;10.70;99.90
53152;DHT22;39234;53.158;6.322;2023-05-08T00:32:08;10.50;99.90
53152;DHT22;39234;53.158;6.322;2023-05-08T00:34:34;10.60;99.90
53152;DHT22;39234;53.158;6.322;2023-05-08T00:37:00;10.50;99.90
53152;DHT22;39234;53.158;6.322;2023-05-08T00:39:25;10.50;99.90
53152;DHT22;39234;53.158;6.322;2023-05-08T00:41:51;11.40;99.90
53152;DHT22;39234;53.158;6.322;2023-05-08T00:44:17;10.60;99.90
53152;DHT22;39234;53.158;6.322;2023-05-08T00:46:43;12.50;99.90
53152;DHT22;39234;53.158;6.322;2023-05-08T00:49:10;10.50;99.90
53152;DHT22;39234;53.158;6.322;2023-05-08T00:51:46;10.40;99.90
53152;DHT22;39234;53.158;6.322;2023-05-08T00:54:15;10.30;99.90
53152;DHT22;39234;53.158;6.322;2023-05-08T00:56:42;10.40;99.90
53152;DHT22;39234;53.158;6.322;2023-05-08T00:59:10;12.30;99.90
53152;DHT22;39234;53.158;6.322;2023-05-08T01:01:36;10.20;99.90
53152;DHT22;39234;53.158;6.322;2023-05-08T01:04:03;10.20;99.90
53152;DHT22;39234;53.158;6.322;2023-05-08T01:06:29;10.40;99.90
53152;DHT22;39234;53.158;6.322;2023-05-08T01:08:54;10.30;99.90
53152;DHT22;39234;53.158;6.322;2023-05-08T01:11:37;10.30;99.90
53152;DHT22;39234;53.158;6.322;2023-05-08T01:14:23;10.10;99.90
53152;DHT22;39234;53.158;6.322;2023-05-08T01:17:08;10.40;99.90
53152;DHT22;39234;53.158;6.322;2023-05-08T01:19:55;10.20;99.90
53152;DHT22;39234;53.158;6.322;2023-05-08T01:22:43;10.20;99.90
53152;DHT22;39234;53.158;6.322;2023-05-08T01:33:40;10.10;99.90
53152;DHT22;39234;53.158;6.322;2023-05-08T01:42:00;10.20;99.90
53152;DHT22;39234;53.158;6.322;2023-05-08T01:44:39;9.90;99.90
53152;DHT22;39234;53.158;6.322;2023-05-08T01:47:07;10.00;99.90
53152;DHT22;39234;53.158;6.322;2023-05-08T01:49:59;9.90;99.90
53152;DHT22;39234;53.158;6.322;2023-05-08T01:52:33;9.80;99.90
53152;DHT22;39234;53.158;6.322;2023-05-08T01:55:07;9.90;99.90
53152;DHT22;39234;53.158;6.322;2023-05-08T01:57:37;9.90;99.90
53152;DHT22;39234;53.158;6.322;2023-05-08T02:00:05;9.90;99.90
53152;DHT22;39234;53.158;6.322;2023-05-08T02:02:33;9.80;99.90
53152;DHT22;39234;53.158;6.322;2023-05-08T02:05:02;9.90;99.90
53152;DHT22;39234;53.158;6.322;2023-05-08T02:07:29;10.00;99.90
53152;DHT22;39234;53.158;6.322;2023-05-08T02:09:57;9.90;99.90
53152;DHT22;39234;53.158;6.322;2023-05-08T02:12:24;9.90;99.90
53152;DHT22;39234;53.158;6.322;2023-05-08T02:14:52;9.80;99.90
53152;DHT22;39234;53.158;6.322;2023-05-08T02:17:18;9.80;99.90
53152;DHT22;39234;53.158;6.322;2023-05-08T02:19:46;9.80;99.90
53152;DHT22;39234;53.158;6.322;2023-05-08T02:22:15;9.80;99.90
53152;DHT22;39234;53.158;6.322;2023-05-08T02:24:44;9.70;99.90
53152;DHT22;39234;53.158;6.322;2023-05-08T02:27:11;9.70;99.90
53152;DHT22;39234;53.158;6.322;2023-05-08T02:29:37;9.80;99.90
53152;DHT22;39234;53.158;6.322;2023-05-08T02:32:05;9.70;99.90
53152;DHT22;39234;53.158;6.322;2023-05-08T02:34:33;9.70;99.90
53152;DHT22;39234;53.158;6.322;2023-05-08T02:37:01;9.70;99.90
53152;DHT22;39234;53.158;6.322;2023-05-08T02:39:29;9.50;99.90
53152;DHT22;39234;53.158;6.322;2023-05-08T02:41:56;9.60;99.90
53152;DHT22;39234;53.158;6.322;2023-05-08T02:44:22;9.70;99.90
53152;DHT22;39234;53.158;6.322;2023-05-08T02:47:14;9.50;99.90
53152;DHT22;39234;53.158;6.322;2023-05-08T02:49:59;9.60;99.90
53152;DHT22;39234;53.158;6.322;2023-05-08T02:52:37;9.60;99.90
53152;DHT22;39234;53.158;6.322;2023-05-08T02:55:14;9.60;99.90
53152;DHT22;39234;53.158;6.322;2023-05-08T03:00:19;9.50;99.90
53152;DHT22;39234;53.158;6.322;2023-05-08T03:02:49;9.60;99.90
53152;DHT22;39234;53.158;6.322;2023-05-08T03:05:19;9.30;99.90
53152;DHT22;39234;53.158;6.322;2023-05-08T03:07:51;9.20;99.90
53152;DHT22;39234;53.158;6.322;2023-05-08T03:10:20;9.30;99.90
53152;DHT22;39234;53.158;6.322;2023-05-08T03:12:49;9.50;99.90
53152;DHT22;39234;53.158;6.322;2023-05-08T03:15:27;9.60;99.90
53152;DHT22;39234;53.158;6.322;2023-05-08T03:18:05;9.30;99.90
53152;DHT22;39234;53.158;6.322;2023-05-08T03:20:36;9.30;99.90
53152;DHT22;39234;53.158;6.322;2023-05-08T03:23:04;9.10;99.90
53152;DHT22;39234;53.158;6.322;2023-05-08T03:25:31;9.40;99.90
53152;DHT22;39234;53.158;6.322;2023-05-08T03:27:59;8.70;99.90
53152;DHT22;39234;53.158;6.322;2023-05-08T03:30:25;9.10;99.90
53152;DHT22;39234;53.158;6.322;2023-05-08T03:32:53;9.00;99.90
53152;DHT22;39234;53.158;6.322;2023-05-08T03:35:20;9.00;99.90
53152;DHT22;39234;53.158;6.322;2023-05-08T03:37:46;9.00;99.90
53152;DHT22;39234;53.158;6.322;2023-05-08T03:40:12;9.10;99.90
53152;DHT22;39234;53.158;6.322;2023-05-08T03:42:39;9.10;99.90
53152;DHT22;39234;53.158;6.322;2023-05-08T03:45:07;9.10;99.90
53152;DHT22;39234;53.158;6.322;2023-05-08T03:47:35;9.00;99.90
53152;DHT22;39234;53.158;6.322;2023-05-08T03:50:02;9.00;99.90
53152;DHT22;39234;53.158;6.322;2023-05-08T03:52:28;9.00;99.90
53152;DHT22;39234;53.158;6.322;2023-05-08T03:54:54;9.00;99.90
53152;DHT22;39234;53.158;6.322;2023-05-08T03:57:21;9.00;99.90
53152;DHT22;39234;53.158;6.322;2023-05-08T04:05:34;8.90;99.90
53152;DHT22;39234;53.158;6.322;2023-05-08T04:08:18;8.90;99.90
53152;DHT22;39234;53.158;6.322;2023-05-08T04:10:58;8.90;99.90
53152;DHT22;39234;53.158;6.322;2023-05-08T04:13:30;8.90;99.90
53152;DHT22;39234;53.158;6.322;2023-05-08T04:16:05;8.90;99.90
53152;DHT22;39234;53.158;6.322;2023-05-08T04:18:35;8.80;99.90
53152;DHT22;39234;53.158;6.322;2023-05-08T04:21:04;8.80;99.90
53152;DHT22;39234;53.158;6.322;2023-05-08T04:23:34;9.00;99.90
53152;DHT22;39234;53.158;6.322;2023-05-08T04:26:01;9.10;99.90
53152;DHT22;39234;53.158;6.322;2023-05-08T04:28:28;8.90;99.90
53152;DHT22;39234;53.158;6.322;2023-05-08T04:30:55;9.00;99.90
53152;DHT22;39234;53.158;6.322;2023-05-08T04:33:21;9.10;99.90
53152;DHT22;39234;53.158;6.322;2023-05-08T04:35:48;9.20;99.90
53152;DHT22;39234;53.158;6.322;2023-05-08T04:38:14;9.20;99.90
53152;DHT22;39234;53.158;6.322;2023-05-08T04:40:40;9.20;99.90
53152;DHT22;39234;53.158;6.322;2023-05-08T04:43:06;9.10;99.90
53152;DHT22;39234;53.158;6.322;2023-05-08T04:45:31;9.30;99.90
53152;DHT22;39234;53.158;6.322;2023-05-08T04:47:57;9.40;99.90
53152;DHT22;39234;53.158;6.322;2023-05-08T04:50:23;9.50;99.90
53152;DHT22;39234;53.158;6.322;2023-05-08T04:52:49;9.70;99.90
53152;DHT22;39234;53.158;6.322;2023-05-08T04:55:15;9.60;99.90
53152;DHT22;39234;53.158;6.322;2023-05-08T04:57:40;9.50;99.90
53152;DHT22;39234;53.158;6.322;2023-05-08T05:00:06;9.90;99.90
53152;DHT22;39234;53.158;6.322;2023-05-08T05:02:32;10.00;99.90
53152;DHT22;39234;53.158;6.322;2023-05-08T05:04:58;10.30;99.90
53152;DHT22;39234;53.158;6.322;2023-05-08T05:07:25;10.40;99.90
53152;DHT22;39234;53.158;6.322;2023-05-08T05:09:51;10.60;99.90
53152;DHT22;39234;53.158;6.322;2023-05-08T05:12:17;10.60;99.90
53152;DHT22;39234;53.158;6.322;2023-05-08T05:14:42;10.80;99.90
53152;DHT22;39234;53.158;6.322;2023-05-08T05:17:08;10.90;99.90
53152;DHT22;39234;53.158;6.322;2023-05-08T05:19:34;11.00;99.90
53152;DHT22;39234;53.158;6.322;2023-05-08T05:21:59;11.30;99.90
53152;DHT22;39234;53.158;6.322;2023-05-08T05:24:25;11.30;99.90
53152;DHT22;39234;53.158;6.322;2023-05-08T05:26:51;11.30;99.90
53152;DHT22;39234;53.158;6.322;2023-05-08T05:29:16;11.50;99.90
53152;DHT22;39234;53.158;6.322;2023-05-08T05:31:42;11.80;99.90
53152;DHT22;39234;53.158;6.322;2023-05-08T05:34:08;11.60;99.90
53152;DHT22;39234;53.158;6.322;2023-05-08T05:36:34;11.60;99.90
53152;DHT22;39234;53.158;6.322;2023-05-08T05:38:59;11.80;99.90
53152;DHT22;39234;53.158;6.322;2023-05-08T05:41:25;11.80;99.90
53152;DHT22;39234;53.158;6.322;2023-05-08T05:43:51;11.70;99.90
53152;DHT22;39234;53.158;6.322;2023-05-08T05:46:17;12.00;99.90
53152;DHT22;39234;53.158;6.322;2023-05-08T05:48:43;12.30;99.90
53152;DHT22;39234;53.158;6.322;2023-05-08T05:51:08;12.30;99.90
53152;DHT22;39234;53.158;6.322;2023-05-08T05:53:34;12.50;99.90
53152;DHT22;39234;53.158;6.322;2023-05-08T05:56:00;12.40;99.90
53152;DHT22;39234;53.158;6.322;2023-05-08T05:58:26;12.60;99.90
53152;DHT22;39234;53.158;6.322;2023-05-08T06:00:53;13.10;99.90
53152;DHT22;39234;53.158;6.322;2023-05-08T06:03:18;13.50;99.90
53152;DHT22;39234;53.158;6.322;2023-05-08T06:05:46;13.70;99.90
53152;DHT22;39234;53.158;6.322;2023-05-08T06:08:11;13.70;99.90
53152;DHT22;39234;53.158;6.322;2023-05-08T06:10:38;14.40;99.90
53152;DHT22;39234;53.158;6.322;2023-05-08T06:13:03;14.00;99.90
53152;DHT22;39234;53.158;6.322;2023-05-08T06:15:29;13.80;99.90
53152;DHT22;39234;53.158;6.322;2023-05-08T06:17:55;13.40;99.90
53152;DHT22;39234;53.158;6.322;2023-05-08T06:20:20;13.60;99.90
53152;DHT22;39234;53.158;6.322;2023-05-08T06:22:47;13.30;99.90
53152;DHT22;39234;53.158;6.322;2023-05-08T06:25:12;13.00;99.90
53152;DHT22;39234;53.158;6.322;2023-05-08T06:27:38;12.90;99.90
53152;DHT22;39234;53.158;6.322;2023-05-08T06:30:04;12.90;99.90
53152;DHT22;39234;53.158;6.322;2023-05-08T06:32:35;12.90;99.90
53152;DHT22;39234;53.158;6.322;2023-05-08T06:35:01;13.10;99.90
53152;DHT22;39234;53.158;6.322;2023-05-08T06:37:26;12.90;99.90
53152;DHT22;39234;53.158;6.322;2023-05-08T06:39:52;13.20;99.90
53152;DHT22;39234;53.158;6.322;2023-05-08T06:42:18;13.20;99.90
53152;DHT22;39234;53.158;6.322;2023-05-08T06:44:44;13.10;99.90
53152;DHT22;39234;53.158;6.322;2023-05-08T06:47:09;13.20;99.90
53152;DHT22;39234;53.158;6.322;2023-05-08T06:49:36;13.10;99.90
53152;DHT22;39234;53.158;6.322;2023-05-08T06:52:02;13.40;99.90
53152;DHT22;39234;53.158;6.322;2023-05-08T06:54:27;13.10;99.90
53152;DHT22;39234;53.158;6.322;2023-05-08T06:56:53;13.40;99.90
53152;DHT22;39234;53.158;6.322;2023-05-08T06:59:22;13.60;99.90
53152;DHT22;39234;53.158;6.322;2023-05-08T07:01:48;13.80;99.90
53152;DHT22;39234;53.158;6.322;2023-05-08T07:04:14;13.80;99.90
53152;DHT22;39234;53.158;6.322;2023-05-08T07:06:40;13.70;99.90
53152;DHT22;39234;53.158;6.322;2023-05-08T07:09:06;13.80;99.90
53152;DHT22;39234;53.158;6.322;2023-05-08T07:11:31;13.80;99.90
53152;DHT22;39234;53.158;6.322;2023-05-08T07:13:57;12.60;99.90
53152;DHT22;39234;53.158;6.322;2023-05-08T07:16:23;13.80;99.90
53152;DHT22;39234;53.158;6.322;2023-05-08T07:18:49;13.90;99.90
53152;DHT22;39234;53.158;6.322;2023-05-08T07:21:15;14.00;99.90
53152;DHT22;39234;53.158;6.322;2023-05-08T07:23:42;14.20;99.90
53152;DHT22;39234;53.158;6.322;2023-05-08T07:26:08;14.20;99.90
53152;DHT22;39234;53.158;6.322;2023-05-08T07:28:34;14.30;99.90
53152;DHT22;39234;53.158;6.322;2023-05-08T07:31:03;14.20;99.90
53152;DHT22;39234;53.158;6.322;2023-05-08T07:33:29;14.30;99.90
53152;DHT22;39234;53.158;6.322;2023-05-08T07:35:55;14.30;99.90
53152;DHT22;39234;53.158;6.322;2023-05-08T07:38:21;14.50;99.90
53152;DHT22;39234;53.158;6.322;2023-05-08T07:40:47;14.50;99.90
53152;DHT22;39234;53.158;6.322;2023-05-08T07:43:13;14.80;99.90
53152;DHT22;39234;53.158;6.322;2023-05-08T07:45:39;14.80;99.90
53152;DHT22;39234;53.158;6.322;2023-05-08T07:48:05;14.90;99.90
53152;DHT22;39234;53.158;6.322;2023-05-08T07:50:31;15.20;99.90
53152;DHT22;39234;53.158;6.322;2023-05-08T07:52:57;15.30;99.90
53152;DHT22;39234;53.158;6.322;2023-05-08T07:55:23;15.40;99.90
53152;DHT22;39234;53.158;6.322;2023-05-08T07:57:48;15.60;99.90
53152;DHT22;39234;53.158;6.322;2023-05-08T08:00:15;15.90;99.90
53152;DHT22;39234;53.158;6.322;2023-05-08T08:02:42;16.10;99.90
53152;DHT22;39234;53.158;6.322;2023-05-08T08:05:08;16.80;99.90
53152;DHT22;39234;53.158;6.322;2023-05-08T08:07:34;17.00;99.90
53152;DHT22;39234;53.158;6.322;2023-05-08T08:10:01;17.10;99.90
53152;DHT22;39234;53.158;6.322;2023-05-08T08:12:28;17.40;99.90
53152;DHT22;39234;53.158;6.322;2023-05-08T08:14:54;17.40;99.90
53152;DHT22;39234;53.158;6.322;2023-05-08T08:17:19;17.40;99.90
53152;DHT22;39234;53.158;6.322;2023-05-08T08:19:45;17.40;99.90
53152;DHT22;39234;53.158;6.322;2023-05-08T08:22:11;17.10;99.90
53152;DHT22;39234;53.158;6.322;2023-05-08T08:24:37;16.80;99.90
53152;DHT22;39234;53.158;6.322;2023-05-08T08:27:02;17.00;99.90
53152;DHT22;39234;53.158;6.322;2023-05-08T08:29:29;16.40;99.90
53152;DHT22;39234;53.158;6.322;2023-05-08T08:31:55;16.70;99.90
53152;DHT22;39234;53.158;6.322;2023-05-08T08:34:21;16.60;99.90
53152;DHT22;39234;53.158;6.322;2023-05-08T08:36:46;16.70;99.90
53152;DHT22;39234;53.158;6.322;2023-05-08T08:39:12;16.70;99.90
53152;DHT22;39234;53.158;6.322;2023-05-08T08:41:39;16.40;99.90
53152;DHT22;39234;53.158;6.322;2023-05-08T08:44:05;16.70;99.90
53152;DHT22;39234;53.158;6.322;2023-05-08T08:46:31;16.60;99.90
53152;DHT22;39234;53.158;6.322;2023-05-08T08:49:03;16.40;99.90
53152;DHT22;39234;53.158;6.322;2023-05-08T08:51:42;17.00;99.90
53152;DHT22;39234;53.158;6.322;2023-05-08T08:54:12;16.30;99.90
53152;DHT22;39234;53.158;6.322;2023-05-08T08:56:39;16.60;99.90
53152;DHT22;39234;53.158;6.322;2023-05-08T08:59:08;16.50;99.90
53152;DHT22;39234;53.158;6.322;2023-05-08T09:01:38;16.80;99.90
53152;DHT22;39234;53.158;6.322;2023-05-08T09:04:04;16.90;99.90
53152;DHT22;39234;53.158;6.322;2023-05-08T09:06:31;17.10;99.90
53152;DHT22;39234;53.158;6.322;2023-05-08T09:09:00;17.30;99.90
53152;DHT22;39234;53.158;6.322;2023-05-08T09:11:27;17.80;99.90
53152;DHT22;39234;53.158;6.322;2023-05-08T09:13:57;18.30;99.90
53152;DHT22;39234;53.158;6.322;2023-05-08T09:16:23;18.70;99.90
53152;DHT22;39234;53.158;6.322;2023-05-08T09:18:49;19.30;99.90
53152;DHT22;39234;53.158;6.322;2023-05-08T09:21:15;19.80;99.90
53152;DHT22;39234;53.158;6.322;2023-05-08T09:24:02;19.70;99.90
53152;DHT22;39234;53.158;6.322;2023-05-08T09:26:32;19.90;99.90
53152;DHT22;39234;53.158;6.322;2023-05-08T09:29:09;19.90;99.90
53152;DHT22;39234;53.158;6.322;2023-05-08T09:31:40;20.10;99.90
53152;DHT22;39234;53.158;6.322;2023-05-08T09:34:08;20.00;99.90
53152;DHT22;39234;53.158;6.322;2023-05-08T09:36:34;20.00;99.90
53152;DHT22;39234;53.158;6.322;2023-05-08T09:39:00;19.90;99.90
53152;DHT22;39234;53.158;6.322;2023-05-08T09:41:26;19.60;99.90
53152;DHT22;39234;53.158;6.322;2023-05-08T09:44:03;20.00;99.90
53152;DHT22;39234;53.158;6.322;2023-05-08T09:46:29;19.90;99.90
53152;DHT22;39234;53.158;6.322;2023-05-08T09:48:57;19.80;99.90
53152;DHT22;39234;53.158;6.322;2023-05-08T09:51:24;19.70;99.90
53152;DHT22;39234;53.158;6.322;2023-05-08T09:53:55;19.60;99.90
53152;DHT22;39234;53.158;6.322;2023-05-08T09:56:34;19.30;99.90
53152;DHT22;39234;53.158;6.322;2023-05-08T09:59:02;19.30;99.90
53152;DHT22;39234;53.158;6.322;2023-05-08T10:01:34;19.40;99.90
53152;DHT22;39234;53.158;6.322;2023-05-08T10:04:00;19.50;99.90
53152;DHT22;39234;53.158;6.322;2023-05-08T10:06:26;19.80;99.90
53152;DHT22;39234;53.158;6.322;2023-05-08T10:09:14;19.80;99.90
53152;DHT22;39234;53.158;6.322;2023-05-08T10:11:41;20.00;99.90
53152;DHT22;39234;53.158;6.322;2023-05-08T10:14:16;20.10;99.90
53152;DHT22;39234;53.158;6.322;2023-05-08T10:16:44;20.30;99.90
53152;DHT22;39234;53.158;6.322;2023-05-08T10:19:15;20.50;99.90
53152;DHT22;39234;53.158;6.322;2023-05-08T10:21:51;20.40;99.90
53152;DHT22;39234;53.158;6.322;2023-05-08T10:24:26;20.50;99.90
53152;DHT22;39234;53.158;6.322;2023-05-08T10:27:04;20.50;99.90
53152;DHT22;39234;53.158;6.322;2023-05-08T10:32:10;20.70;99.90
53152;DHT22;39234;53.158;6.322;2023-05-08T10:34:40;20.80;99.90
53152;DHT22;39234;53.158;6.322;2023-05-08T10:37:09;21.00;99.90
53152;DHT22;39234;53.158;6.322;2023-05-08T10:39:36;21.80;99.90
53152;DHT22;39234;53.158;6.322;2023-05-08T10:42:02;21.20;99.90
53152;DHT22;39234;53.158;6.322;2023-05-08T10:44:29;21.30;99.90
53152;DHT22;39234;53.158;6.322;2023-05-08T10:47:00;21.50;99.90
53152;DHT22;39234;53.158;6.322;2023-05-08T10:49:59;21.30;99.90
53152;DHT22;39234;53.158;6.322;2023-05-08T10:52:38;21.30;99.90
53152;DHT22;39234;53.158;6.322;2023-05-08T10:58:04;21.50;99.90
53152;DHT22;39234;53.158;6.322;2023-05-08T11:00:32;21.80;99.90
53152;DHT22;39234;53.158;6.322;2023-05-08T11:03:07;22.10;99.90
53152;DHT22;39234;53.158;6.322;2023-05-08T11:05:44;22.20;99.90
53152;DHT22;39234;53.158;6.322;2023-05-08T11:08:16;22.10;99.90
53152;DHT22;39234;53.158;6.322;2023-05-08T11:10:46;22.30;99.90
53152;DHT22;39234;53.158;6.322;2023-05-08T11:13:14;22.20;99.90
53152;DHT22;39234;53.158;6.322;2023-05-08T11:15:41;22.40;99.90
53152;DHT22;39234;53.158;6.322;2023-05-08T11:18:09;22.40;99.90
53152;DHT22;39234;53.158;6.322;2023-05-08T11:20:56;22.10;99.90
53152;DHT22;39234;53.158;6.322;2023-05-08T11:23:29;22.70;99.90
53152;DHT22;39234;53.158;6.322;2023-05-08T11:26:11;22.50;99.90
53152;DHT22;39234;53.158;6.322;2023-05-08T11:28:55;22.70;99.90
53152;DHT22;39234;53.158;6.322;2023-05-08T11:31:21;22.70;99.90
53152;DHT22;39234;53.158;6.322;2023-05-08T11:33:48;22.80;99.90
53152;DHT22;39234;53.158;6.322;2023-05-08T11:36:18;22.90;99.90
53152;DHT22;39234;53.158;6.322;2023-05-08T11:39:07;23.00;99.90
53152;DHT22;39234;53.158;6.322;2023-05-08T11:41:34;23.10;99.90
53152;DHT22;39234;53.158;6.322;2023-05-08T11:46:53;23.20;99.90
53152;DHT22;39234;53.158;6.322;2023-05-08T11:49:24;23.50;99.90
53152;DHT22;39234;53.158;6.322;2023-05-08T11:51:52;23.70;99.90
53152;DHT22;39234;53.158;6.322;2023-05-08T11:54:23;23.50;99.90
53152;DHT22;39234;53.158;6.322;2023-05-08T11:56:53;23.50;99.90
53152;DHT22;39234;53.158;6.322;2023-05-08T11:59:20;23.30;99.90
53152;DHT22;39234;53.158;6.322;2023-05-08T12:01:49;23.10;99.90
53152;DHT22;39234;53.158;6.322;2023-05-08T12:04:15;22.80;99.90
53152;DHT22;39234;53.158;6.322;2023-05-08T12:06:41;22.50;99.90
53152;DHT22;39234;53.158;6.322;2023-05-08T12:09:15;22.40;99.90
53152;DHT22;39234;53.158;6.322;2023-05-08T12:11:42;21.90;99.90
53152;DHT22;39234;53.158;6.322;2023-05-08T12:14:11;22.20;99.90
53152;DHT22;39234;53.158;6.322;2023-05-08T12:16:38;22.20;99.90
53152;DHT22;39234;53.158;6.322;2023-05-08T12:19:11;22.10;99.90
53152;DHT22;39234;53.158;6.322;2023-05-08T12:21:37;22.30;99.90
53152;DHT22;39234;53.158;6.322;2023-05-08T12:24:09;22.30;99.90
53152;DHT22;39234;53.158;6.322;2023-05-08T12:26:36;22.30;99.90
53152;DHT22;39234;53.158;6.322;2023-05-08T12:29:06;22.30;99.90
53152;DHT22;39234;53.158;6.322;2023-05-08T12:31:35;22.60;99.90
53152;DHT22;39234;53.158;6.322;2023-05-08T12:34:02;22.70;99.90
53152;DHT22;39234;53.158;6.322;2023-05-08T12:36:33;22.80;99.90
53152;DHT22;39234;53.158;6.322;2023-05-08T12:39:12;22.50;99.90
53152;DHT22;39234;53.158;6.322;2023-05-08T12:41:56;22.40;99.90
53152;DHT22;39234;53.158;6.322;2023-05-08T12:44:23;22.00;99.90
53152;DHT22;39234;53.158;6.322;2023-05-08T12:46:52;22.10;99.90
53152;DHT22;39234;53.158;6.322;2023-05-08T12:49:45;22.10;99.90
53152;DHT22;39234;53.158;6.322;2023-05-08T12:52:14;21.90;99.90
53152;DHT22;39234;53.158;6.322;2023-05-08T12:54:47;21.90;99.90
53152;DHT22;39234;53.158;6.322;2023-05-08T12:57:15;22.00;99.90
53152;DHT22;39234;53.158;6.322;2023-05-08T12:59:41;21.20;99.90
53152;DHT22;39234;53.158;6.322;2023-05-08T13:02:17;22.30;99.90
53152;DHT22;39234;53.158;6.322;2023-05-08T13:04:44;22.50;99.90
53152;DHT22;39234;53.158;6.322;2023-05-08T13:07:10;22.40;99.90
53152;DHT22;39234;53.158;6.322;2023-05-08T13:09:36;22.20;99.90
53152;DHT22;39234;53.158;6.322;2023-05-08T13:12:02;22.10;99.90
53152;DHT22;39234;53.158;6.322;2023-05-08T13:14:28;22.20;99.90
53152;DHT22;39234;53.158;6.322;2023-05-08T13:16:54;22.10;99.90
53152;DHT22;39234;53.158;6.322;2023-05-08T13:19:19;22.30;99.90
53152;DHT22;39234;53.158;6.322;2023-05-08T13:21:45;22.50;99.90
53152;DHT22;39234;53.158;6.322;2023-05-08T13:24:15;22.70;99.90
53152;DHT22;39234;53.158;6.322;2023-05-08T13:26:41;22.50;99.90
53152;DHT22;39234;53.158;6.322;2023-05-08T13:29:07;22.50;99.90
53152;DHT22;39234;53.158;6.322;2023-05-08T13:31:33;22.30;99.90
53152;DHT22;39234;53.158;6.322;2023-05-08T13:33:59;22.20;99.90
53152;DHT22;39234;53.158;6.322;2023-05-08T13:36:25;22.10;99.90
53152;DHT22;39234;53.158;6.322;2023-05-08T13:38:51;22.00;99.90
53152;DHT22;39234;53.158;6.322;2023-05-08T13:41:19;22.10;99.90
53152;DHT22;39234;53.158;6.322;2023-05-08T13:43:46;22.00;99.90
53152;DHT22;39234;53.158;6.322;2023-05-08T13:46:12;21.90;99.90
53152;DHT22;39234;53.158;6.322;2023-05-08T13:48:38;22.10;99.90
53152;DHT22;39234;53.158;6.322;2023-05-08T13:51:04;22.20;99.90
53152;DHT22;39234;53.158;6.322;2023-05-08T13:53:29;22.30;99.90
53152;DHT22;39234;53.158;6.322;2023-05-08T13:55:55;22.50;99.90
53152;DHT22;39234;53.158;6.322;2023-05-08T13:58:21;22.20;99.90
53152;DHT22;39234;53.158;6.322;2023-05-08T14:00:47;22.30;99.90
53152;DHT22;39234;53.158;6.322;2023-05-08T14:03:14;22.20;99.90
53152;DHT22;39234;53.158;6.322;2023-05-08T14:05:40;22.10;99.90
53152;DHT22;39234;53.158;6.322;2023-05-08T14:08:05;22.10;99.90
53152;DHT22;39234;53.158;6.322;2023-05-08T14:10:31;22.00;99.90
53152;DHT22;39234;53.158;6.322;2023-05-08T14:12:57;21.90;99.90
53152;DHT22;39234;53.158;6.322;2023-05-08T14:15:22;22.00;99.90
53152;DHT22;39234;53.158;6.322;2023-05-08T14:17:48;22.20;99.90
53152;DHT22;39234;53.158;6.322;2023-05-08T14:20:14;22.50;99.90
53152;DHT22;39234;53.158;6.322;2023-05-08T14:22:40;22.50;99.90
53152;DHT22;39234;53.158;6.322;2023-05-08T14:25:06;22.80;99.90
53152;DHT22;39234;53.158;6.322;2023-05-08T14:27:32;22.90;99.90
53152;DHT22;39234;53.158;6.322;2023-05-08T14:29:58;22.90;99.90
53152;DHT22;39234;53.158;6.322;2023-05-08T14:32:23;22.50;99.90
53152;DHT22;39234;53.158;6.322;2023-05-08T14:34:49;22.50;99.90
53152;DHT22;39234;53.158;6.322;2023-05-08T14:37:15;22.30;99.90
53152;DHT22;39234;53.158;6.322;2023-05-08T14:39:42;22.20;99.90
53152;DHT22;39234;53.158;6.322;2023-05-08T14:42:08;21.80;99.90
53152;DHT22;39234;53.158;6.322;2023-05-08T14:44:33;22.00;99.90
53152;DHT22;39234;53.158;6.322;2023-05-08T14:46:59;21.80;99.90
53152;DHT22;39234;53.158;6.322;2023-05-08T14:49:25;21.80;99.90
53152;DHT22;39234;53.158;6.322;2023-05-08T14:51:51;21.70;99.90
53152;DHT22;39234;53.158;6.322;2023-05-08T14:54:17;21.50;99.90
53152;DHT22;39234;53.158;6.322;2023-05-08T14:56:42;21.10;99.90
53152;DHT22;39234;53.158;6.322;2023-05-08T14:59:08;21.30;99.90
53152;DHT22;39234;53.158;6.322;2023-05-08T15:01:34;21.30;99.90
53152;DHT22;39234;53.158;6.322;2023-05-08T15:03:59;21.20;99.90
53152;DHT22;39234;53.158;6.322;2023-05-08T15:06:26;21.10;99.90
53152;DHT22;39234;53.158;6.322;2023-05-08T15:08:53;21.00;99.90
53152;DHT22;39234;53.158;6.322;2023-05-08T15:11:19;20.90;99.90
53152;DHT22;39234;53.158;6.322;2023-05-08T15:13:47;20.90;99.90
53152;DHT22;39234;53.158;6.322;2023-05-08T15:16:13;20.80;99.90
53152;DHT22;39234;53.158;6.322;2023-05-08T15:18:38;20.60;99.90
53152;DHT22;39234;53.158;6.322;2023-05-08T15:21:04;20.70;99.90
53152;DHT22;39234;53.158;6.322;2023-05-08T15:23:30;20.40;99.90
53152;DHT22;39234;53.158;6.322;2023-05-08T15:25:56;20.40;99.90
53152;DHT22;39234;53.158;6.322;2023-05-08T15:28:22;20.40;99.90
53152;DHT22;39234;53.158;6.322;2023-05-08T15:30:47;20.10;99.90
53152;DHT22;39234;53.158;6.322;2023-05-08T15:33:13;20.20;99.90
53152;DHT22;39234;53.158;6.322;2023-05-08T15:35:39;20.30;99.90
53152;DHT22;39234;53.158;6.322;2023-05-08T15:38:06;20.30;99.90
53152;DHT22;39234;53.158;6.322;2023-05-08T15:40:32;20.60;99.90
53152;DHT22;39234;53.158;6.322;2023-05-08T15:42:58;20.80;99.90
53152;DHT22;39234;53.158;6.322;2023-05-08T15:45:24;20.80;99.90
53152;DHT22;39234;53.158;6.322;2023-05-08T15:47:50;21.10;99.90
53152;DHT22;39234;53.158;6.322;2023-05-08T15:50:16;21.10;99.90
53152;DHT22;39234;53.158;6.322;2023-05-08T15:52:42;21.10;99.90
53152;DHT22;39234;53.158;6.322;2023-05-08T15:55:08;21.20;99.90
53152;DHT22;39234;53.158;6.322;2023-05-08T15:57:34;21.10;99.90
53152;DHT22;39234;53.158;6.322;2023-05-08T15:59:59;20.90;99.90
53152;DHT22;39234;53.158;6.322;2023-05-08T16:02:25;21.10;99.90
53152;DHT22;39234;53.158;6.322;2023-05-08T16:04:51;20.90;99.90
53152;DHT22;39234;53.158;6.322;2023-05-08T16:07:17;20.50;99.90
53152;DHT22;39234;53.158;6.322;2023-05-08T16:09:42;20.80;99.90
53152;DHT22;39234;53.158;6.322;2023-05-08T16:12:08;20.80;99.90